Аэропорт: Рощино. Тюмень

ICAO: USTR

METAR:
2018/11/19 10:00
USTR 191000Z 25003MPS 5000 -SHSN BKN010 OVC018CB M00/M01 Q1020 R30/450248 TEMPO 2000 SHSN BKN005 BKN015CB RMK QFE755/1007
METAR:
2018/11/19 09:00
TAF USTR 190759Z 1909/2009 26004MPS 4000 -SHSN BKN011 BKN015CB 
      TEMPO 1909/1918 2100 -SHRA BKN007 BKN015CB 
      BECMG 1910/1912 30005MPS